sensor_id;sensor_type;location;lat;lon;timestamp;P1;durP1;ratioP1;P2;durP2;ratioP2
78799;SDS011;68148;55.328;86.106;2023-09-19T00:01:51;32.67;;;11.38;;
78799;SDS011;68148;55.328;86.106;2023-09-19T00:04:17;37.38;;;11.18;;
78799;SDS011;68148;55.328;86.106;2023-09-19T00:06:43;31.20;;;10.73;;
78799;SDS011;68148;55.328;86.106;2023-09-19T00:09:09;43.47;;;10.95;;
78799;SDS011;68148;55.328;86.106;2023-09-19T00:11:35;33.10;;;10.57;;
78799;SDS011;68148;55.328;86.106;2023-09-19T00:14:01;27.42;;;10.95;;
78799;SDS011;68148;55.328;86.106;2023-09-19T00:16:26;40.70;;;13.25;;
78799;SDS011;68148;55.328;86.106;2023-09-19T00:18:52;30.48;;;13.70;;
78799;SDS011;68148;55.328;86.106;2023-09-19T00:21:18;31.63;;;13.32;;
78799;SDS011;68148;55.328;86.106;2023-09-19T00:23:43;28.27;;;12.60;;
78799;SDS011;68148;55.328;86.106;2023-09-19T00:26:09;34.88;;;12.93;;
78799;SDS011;68148;55.328;86.106;2023-09-19T00:28:35;39.58;;;12.75;;
78799;SDS011;68148;55.328;86.106;2023-09-19T00:31:01;45.95;;;12.70;;
78799;SDS011;68148;55.328;86.106;2023-09-19T00:33:27;38.05;;;14.32;;
78799;SDS011;68148;55.328;86.106;2023-09-19T00:35:54;43.65;;;14.95;;
78799;SDS011;68148;55.328;86.106;2023-09-19T00:38:21;57.95;;;16.58;;
78799;SDS011;68148;55.328;86.106;2023-09-19T00:40:48;92.07;;;21.38;;
78799;SDS011;68148;55.328;86.106;2023-09-19T00:43:14;67.68;;;17.52;;
78799;SDS011;68148;55.328;86.106;2023-09-19T00:45:44;45.08;;;15.90;;
78799;SDS011;68148;55.328;86.106;2023-09-19T00:48:12;51.00;;;15.25;;
78799;SDS011;68148;55.328;86.106;2023-09-19T00:50:38;55.50;;;14.32;;
78799;SDS011;68148;55.328;86.106;2023-09-19T00:53:07;29.95;;;12.52;;
78799;SDS011;68148;55.328;86.106;2023-09-19T00:55:34;38.05;;;13.48;;
78799;SDS011;68148;55.328;86.106;2023-09-19T01:00:33;28.73;;;10.90;;
78799;SDS011;68148;55.328;86.106;2023-09-19T01:03:00;33.42;;;13.18;;
78799;SDS011;68148;55.328;86.106;2023-09-19T01:05:26;35.45;;;12.05;;
78799;SDS011;68148;55.328;86.106;2023-09-19T01:07:52;27.92;;;10.98;;
78799;SDS011;68148;55.328;86.106;2023-09-19T01:10:18;31.35;;;11.90;;
78799;SDS011;68148;55.328;86.106;2023-09-19T01:23:10;39.33;;;13.15;;
78799;SDS011;68148;55.328;86.106;2023-09-19T01:28:31;31.02;;;12.25;;
78799;SDS011;68148;55.328;86.106;2023-09-19T01:30:59;27.60;;;12.05;;
78799;SDS011;68148;55.328;86.106;2023-09-19T01:33:28;31.73;;;12.60;;
78799;SDS011;68148;55.328;86.106;2023-09-19T01:36:14;30.75;;;14.10;;
78799;SDS011;68148;55.328;86.106;2023-09-19T01:38:40;30.70;;;12.93;;
78799;SDS011;68148;55.328;86.106;2023-09-19T01:41:06;35.17;;;12.82;;
78799;SDS011;68148;55.328;86.106;2023-09-19T01:43:41;32.20;;;13.70;;
78799;SDS011;68148;55.328;86.106;2023-09-19T01:48:46;37.65;;;17.52;;
78799;SDS011;68148;55.328;86.106;2023-09-19T01:51:27;46.70;;;20.27;;
78799;SDS011;68148;55.328;86.106;2023-09-19T01:54:03;43.22;;;19.20;;
78799;SDS011;68148;55.328;86.106;2023-09-19T01:57:17;48.67;;;22.15;;
78799;SDS011;68148;55.328;86.106;2023-09-19T01:59:54;36.97;;;17.98;;
78799;SDS011;68148;55.328;86.106;2023-09-19T02:02:26;43.97;;;21.45;;
78799;SDS011;68148;55.328;86.106;2023-09-19T02:04:54;55.90;;;22.30;;
78799;SDS011;68148;55.328;86.106;2023-09-19T02:07:20;55.65;;;21.77;;
78799;SDS011;68148;55.328;86.106;2023-09-19T02:09:46;51.42;;;21.05;;
78799;SDS011;68148;55.328;86.106;2023-09-19T02:12:12;61.00;;;22.50;;
78799;SDS011;68148;55.328;86.106;2023-09-19T02:14:38;49.17;;;21.00;;
78799;SDS011;68148;55.328;86.106;2023-09-19T02:17:03;53.40;;;21.25;;
78799;SDS011;68148;55.328;86.106;2023-09-19T02:19:29;57.53;;;21.30;;
78799;SDS011;68148;55.328;86.106;2023-09-19T02:21:55;58.55;;;19.55;;
78799;SDS011;68148;55.328;86.106;2023-09-19T02:24:21;44.20;;;17.17;;
78799;SDS011;68148;55.328;86.106;2023-09-19T02:26:47;45.45;;;17.35;;
78799;SDS011;68148;55.328;86.106;2023-09-19T02:29:13;43.03;;;19.08;;
78799;SDS011;68148;55.328;86.106;2023-09-19T02:31:38;53.33;;;20.73;;
78799;SDS011;68148;55.328;86.106;2023-09-19T02:34:04;61.33;;;19.98;;
78799;SDS011;68148;55.328;86.106;2023-09-19T02:36:30;57.60;;;20.75;;
78799;SDS011;68148;55.328;86.106;2023-09-19T02:38:56;53.13;;;21.23;;
78799;SDS011;68148;55.328;86.106;2023-09-19T02:41:21;57.95;;;22.50;;
78799;SDS011;68148;55.328;86.106;2023-09-19T02:43:47;67.28;;;23.73;;
78799;SDS011;68148;55.328;86.106;2023-09-19T02:46:13;67.75;;;26.80;;
78799;SDS011;68148;55.328;86.106;2023-09-19T02:48:39;60.60;;;23.90;;
78799;SDS011;68148;55.328;86.106;2023-09-19T02:51:05;56.20;;;24.90;;
78799;SDS011;68148;55.328;86.106;2023-09-19T02:53:30;59.75;;;24.08;;
78799;SDS011;68148;55.328;86.106;2023-09-19T02:55:56;60.45;;;24.25;;
78799;SDS011;68148;55.328;86.106;2023-09-19T02:58:22;63.13;;;24.02;;
78799;SDS011;68148;55.328;86.106;2023-09-19T03:00:48;58.38;;;25.15;;
78799;SDS011;68148;55.328;86.106;2023-09-19T03:03:14;67.68;;;26.23;;
78799;SDS011;68148;55.328;86.106;2023-09-19T03:05:39;57.90;;;25.50;;
78799;SDS011;68148;55.328;86.106;2023-09-19T03:08:05;67.50;;;25.10;;
78799;SDS011;68148;55.328;86.106;2023-09-19T03:10:31;77.72;;;28.10;;
78799;SDS011;68148;55.328;86.106;2023-09-19T03:12:57;57.42;;;26.13;;
78799;SDS011;68148;55.328;86.106;2023-09-19T03:15:22;67.13;;;26.98;;
78799;SDS011;68148;55.328;86.106;2023-09-19T03:17:49;63.65;;;27.02;;
78799;SDS011;68148;55.328;86.106;2023-09-19T03:20:15;53.25;;;24.67;;
78799;SDS011;68148;55.328;86.106;2023-09-19T03:22:41;70.75;;;25.90;;
78799;SDS011;68148;55.328;86.106;2023-09-19T03:25:07;68.70;;;28.25;;
78799;SDS011;68148;55.328;86.106;2023-09-19T03:27:35;67.03;;;26.50;;
78799;SDS011;68148;55.328;86.106;2023-09-19T03:30:01;57.92;;;24.15;;
78799;SDS011;68148;55.328;86.106;2023-09-19T03:32:28;74.03;;;24.85;;
78799;SDS011;68148;55.328;86.106;2023-09-19T03:34:53;58.90;;;22.77;;
78799;SDS011;68148;55.328;86.106;2023-09-19T03:37:19;65.43;;;23.20;;
78799;SDS011;68148;55.328;86.106;2023-09-19T03:39:45;70.82;;;25.05;;
78799;SDS011;68148;55.328;86.106;2023-09-19T03:42:11;71.05;;;29.83;;
78799;SDS011;68148;55.328;86.106;2023-09-19T03:44:37;86.55;;;33.13;;
78799;SDS011;68148;55.328;86.106;2023-09-19T03:47:03;77.82;;;32.03;;
78799;SDS011;68148;55.328;86.106;2023-09-19T03:49:29;79.85;;;29.05;;
78799;SDS011;68148;55.328;86.106;2023-09-19T03:51:55;71.28;;;26.10;;
78799;SDS011;68148;55.328;86.106;2023-09-19T03:54:21;75.22;;;27.67;;
78799;SDS011;68148;55.328;86.106;2023-09-19T03:56:47;69.75;;;25.63;;
78799;SDS011;68148;55.328;86.106;2023-09-19T03:59:13;70.65;;;27.67;;
78799;SDS011;68148;55.328;86.106;2023-09-19T04:01:38;49.38;;;22.65;;
78799;SDS011;68148;55.328;86.106;2023-09-19T04:04:04;63.65;;;21.63;;
78799;SDS011;68148;55.328;86.106;2023-09-19T04:06:30;52.28;;;20.77;;
78799;SDS011;68148;55.328;86.106;2023-09-19T04:08:56;47.00;;;21.42;;
78799;SDS011;68148;55.328;86.106;2023-09-19T04:11:21;50.45;;;19.20;;
78799;SDS011;68148;55.328;86.106;2023-09-19T04:13:47;48.33;;;19.40;;
78799;SDS011;68148;55.328;86.106;2023-09-19T04:16:13;50.10;;;18.02;;
78799;SDS011;68148;55.328;86.106;2023-09-19T04:18:39;51.25;;;19.40;;
78799;SDS011;68148;55.328;86.106;2023-09-19T04:21:05;47.38;;;14.93;;
78799;SDS011;68148;55.328;86.106;2023-09-19T04:23:32;36.42;;;15.88;;
78799;SDS011;68148;55.328;86.106;2023-09-19T04:25:58;37.20;;;14.00;;
78799;SDS011;68148;55.328;86.106;2023-09-19T04:28:23;37.08;;;13.57;;
78799;SDS011;68148;55.328;86.106;2023-09-19T04:30:49;30.27;;;11.57;;
78799;SDS011;68148;55.328;86.106;2023-09-19T04:33:15;41.33;;;12.68;;
78799;SDS011;68148;55.328;86.106;2023-09-19T04:35:41;34.83;;;12.65;;
78799;SDS011;68148;55.328;86.106;2023-09-19T04:38:07;50.33;;;13.90;;
78799;SDS011;68148;55.328;86.106;2023-09-19T04:40:33;32.85;;;12.88;;
78799;SDS011;68148;55.328;86.106;2023-09-19T04:42:59;34.55;;;10.50;;
78799;SDS011;68148;55.328;86.106;2023-09-19T04:45:25;21.30;;;9.98;;
78799;SDS011;68148;55.328;86.106;2023-09-19T04:47:52;28.48;;;10.18;;
78799;SDS011;68148;55.328;86.106;2023-09-19T04:50:18;26.17;;;8.68;;
78799;SDS011;68148;55.328;86.106;2023-09-19T04:52:44;15.52;;;6.45;;
78799;SDS011;68148;55.328;86.106;2023-09-19T04:55:11;22.35;;;6.18;;
78799;SDS011;68148;55.328;86.106;2023-09-19T04:57:37;25.63;;;6.65;;
78799;SDS011;68148;55.328;86.106;2023-09-19T05:00:03;17.17;;;5.60;;
78799;SDS011;68148;55.328;86.106;2023-09-19T05:02:29;18.17;;;4.40;;
78799;SDS011;68148;55.328;86.106;2023-09-19T05:04:55;8.20;;;2.90;;
78799;SDS011;68148;55.328;86.106;2023-09-19T05:07:21;10.05;;;2.95;;
78799;SDS011;68148;55.328;86.106;2023-09-19T05:09:46;18.75;;;4.85;;
78799;SDS011;68148;55.328;86.106;2023-09-19T05:12:12;12.00;;;3.30;;
78799;SDS011;68148;55.328;86.106;2023-09-19T05:14:38;13.50;;;2.97;;
78799;SDS011;68148;55.328;86.106;2023-09-19T05:17:04;5.95;;;2.10;;
78799;SDS011;68148;55.328;86.106;2023-09-19T05:19:29;6.93;;;2.30;;
78799;SDS011;68148;55.328;86.106;2023-09-19T05:21:55;5.88;;;2.05;;
78799;SDS011;68148;55.328;86.106;2023-09-19T05:24:21;8.10;;;2.28;;
78799;SDS011;68148;55.328;86.106;2023-09-19T05:26:46;6.43;;;2.10;;
78799;SDS011;68148;55.328;86.106;2023-09-19T05:29:12;6.45;;;1.80;;
78799;SDS011;68148;55.328;86.106;2023-09-19T05:31:38;8.23;;;2.83;;
78799;SDS011;68148;55.328;86.106;2023-09-19T05:34:04;12.10;;;2.03;;
78799;SDS011;68148;55.328;86.106;2023-09-19T05:36:30;7.82;;;2.83;;
78799;SDS011;68148;55.328;86.106;2023-09-19T05:38:56;8.73;;;2.42;;
78799;SDS011;68148;55.328;86.106;2023-09-19T05:41:23;7.63;;;2.35;;
78799;SDS011;68148;55.328;86.106;2023-09-19T05:43:49;12.27;;;2.58;;
78799;SDS011;68148;55.328;86.106;2023-09-19T05:46:15;14.43;;;2.30;;
78799;SDS011;68148;55.328;86.106;2023-09-19T05:48:40;10.68;;;2.50;;
78799;SDS011;68148;55.328;86.106;2023-09-19T05:51:06;6.82;;;2.28;;
78799;SDS011;68148;55.328;86.106;2023-09-19T05:53:33;8.50;;;2.58;;
78799;SDS011;68148;55.328;86.106;2023-09-19T05:55:59;4.88;;;2.20;;
78799;SDS011;68148;55.328;86.106;2023-09-19T05:58:24;3.65;;;1.50;;
78799;SDS011;68148;55.328;86.106;2023-09-19T06:00:50;3.10;;;1.60;;
78799;SDS011;68148;55.328;86.106;2023-09-19T06:03:16;4.00;;;1.60;;
78799;SDS011;68148;55.328;86.106;2023-09-19T06:05:42;3.63;;;1.58;;
78799;SDS011;68148;55.328;86.106;2023-09-19T06:08:08;7.13;;;1.83;;
78799;SDS011;68148;55.328;86.106;2023-09-19T06:10:34;6.65;;;2.00;;
78799;SDS011;68148;55.328;86.106;2023-09-19T06:12:59;5.70;;;1.75;;
78799;SDS011;68148;55.328;86.106;2023-09-19T06:15:27;4.85;;;1.65;;
78799;SDS011;68148;55.328;86.106;2023-09-19T06:17:53;8.48;;;1.95;;
78799;SDS011;68148;55.328;86.106;2023-09-19T06:22:46;3.58;;;1.60;;
78799;SDS011;68148;55.328;86.106;2023-09-19T06:25:12;5.50;;;1.40;;
78799;SDS011;68148;55.328;86.106;2023-09-19T06:27:40;3.10;;;1.50;;
78799;SDS011;68148;55.328;86.106;2023-09-19T06:30:06;3.97;;;1.70;;
78799;SDS011;68148;55.328;86.106;2023-09-19T06:32:32;2.50;;;1.42;;
78799;SDS011;68148;55.328;86.106;2023-09-19T06:34:58;6.35;;;1.60;;
78799;SDS011;68148;55.328;86.106;2023-09-19T06:37:26;5.47;;;1.63;;
78799;SDS011;68148;55.328;86.106;2023-09-19T06:39:55;4.78;;;1.90;;
78799;SDS011;68148;55.328;86.106;2023-09-19T06:42:21;2.85;;;1.25;;
78799;SDS011;68148;55.328;86.106;2023-09-19T06:44:47;8.13;;;1.73;;
78799;SDS011;68148;55.328;86.106;2023-09-19T06:47:13;10.05;;;1.73;;
78799;SDS011;68148;55.328;86.106;2023-09-19T06:49:38;12.35;;;1.90;;
78799;SDS011;68148;55.328;86.106;2023-09-19T06:52:04;3.97;;;1.50;;
78799;SDS011;68148;55.328;86.106;2023-09-19T06:54:30;5.22;;;1.70;;
78799;SDS011;68148;55.328;86.106;2023-09-19T06:56:57;3.13;;;1.58;;
78799;SDS011;68148;55.328;86.106;2023-09-19T06:59:22;3.30;;;1.70;;
78799;SDS011;68148;55.328;86.106;2023-09-19T07:01:48;5.28;;;1.55;;
78799;SDS011;68148;55.328;86.106;2023-09-19T07:04:14;3.92;;;2.28;;
78799;SDS011;68148;55.328;86.106;2023-09-19T07:06:40;4.95;;;1.50;;
78799;SDS011;68148;55.328;86.106;2023-09-19T07:09:06;5.10;;;1.73;;
78799;SDS011;68148;55.328;86.106;2023-09-19T07:11:31;8.20;;;1.88;;
78799;SDS011;68148;55.328;86.106;2023-09-19T07:13:57;9.18;;;1.98;;
78799;SDS011;68148;55.328;86.106;2023-09-19T07:16:23;4.18;;;1.30;;
78799;SDS011;68148;55.328;86.106;2023-09-19T07:18:49;10.32;;;2.63;;
78799;SDS011;68148;55.328;86.106;2023-09-19T07:21:15;5.65;;;2.03;;
78799;SDS011;68148;55.328;86.106;2023-09-19T07:23:40;2.45;;;1.10;;
78799;SDS011;68148;55.328;86.106;2023-09-19T07:26:07;4.05;;;1.70;;
78799;SDS011;68148;55.328;86.106;2023-09-19T07:28:41;7.82;;;1.40;;
78799;SDS011;68148;55.328;86.106;2023-09-19T07:31:07;8.48;;;3.10;;
78799;SDS011;68148;55.328;86.106;2023-09-19T07:33:33;5.40;;;2.30;;
78799;SDS011;68148;55.328;86.106;2023-09-19T07:35:59;12.88;;;3.42;;
78799;SDS011;68148;55.328;86.106;2023-09-19T07:38:25;20.35;;;2.53;;
78799;SDS011;68148;55.328;86.106;2023-09-19T07:40:50;5.82;;;2.22;;
78799;SDS011;68148;55.328;86.106;2023-09-19T07:43:16;3.75;;;1.35;;
78799;SDS011;68148;55.328;86.106;2023-09-19T07:45:42;2.63;;;1.40;;
78799;SDS011;68148;55.328;86.106;2023-09-19T07:48:08;2.97;;;1.38;;
78799;SDS011;68148;55.328;86.106;2023-09-19T07:50:34;3.72;;;1.48;;
78799;SDS011;68148;55.328;86.106;2023-09-19T07:53:00;3.13;;;1.50;;
78799;SDS011;68148;55.328;86.106;2023-09-19T07:55:25;4.63;;;1.65;;
78799;SDS011;68148;55.328;86.106;2023-09-19T07:57:52;2.83;;;1.42;;
78799;SDS011;68148;55.328;86.106;2023-09-19T08:00:18;2.40;;;1.30;;
78799;SDS011;68148;55.328;86.106;2023-09-19T08:02:43;4.50;;;2.03;;
78799;SDS011;68148;55.328;86.106;2023-09-19T08:05:10;7.82;;;3.80;;
78799;SDS011;68148;55.328;86.106;2023-09-19T08:07:37;4.38;;;1.50;;
78799;SDS011;68148;55.328;86.106;2023-09-19T08:10:05;7.40;;;1.60;;
78799;SDS011;68148;55.328;86.106;2023-09-19T08:12:32;5.97;;;1.52;;
78799;SDS011;68148;55.328;86.106;2023-09-19T08:14:57;2.80;;;1.73;;
78799;SDS011;68148;55.328;86.106;2023-09-19T08:17:23;5.15;;;1.77;;
78799;SDS011;68148;55.328;86.106;2023-09-19T08:19:49;2.65;;;1.35;;
78799;SDS011;68148;55.328;86.106;2023-09-19T08:22:15;2.83;;;1.27;;
78799;SDS011;68148;55.328;86.106;2023-09-19T08:24:40;9.63;;;1.75;;
78799;SDS011;68148;55.328;86.106;2023-09-19T08:27:06;4.43;;;1.48;;
78799;SDS011;68148;55.328;86.106;2023-09-19T08:29:32;3.28;;;1.63;;
78799;SDS011;68148;55.328;86.106;2023-09-19T08:31:58;4.53;;;1.73;;
78799;SDS011;68148;55.328;86.106;2023-09-19T08:34:25;4.68;;;1.70;;
78799;SDS011;68148;55.328;86.106;2023-09-19T08:36:52;4.80;;;1.73;;
78799;SDS011;68148;55.328;86.106;2023-09-19T08:39:19;3.33;;;1.83;;
78799;SDS011;68148;55.328;86.106;2023-09-19T08:41:47;8.13;;;2.13;;
78799;SDS011;68148;55.328;86.106;2023-09-19T08:44:13;8.52;;;2.55;;
78799;SDS011;68148;55.328;86.106;2023-09-19T08:46:43;3.72;;;1.70;;
78799;SDS011;68148;55.328;86.106;2023-09-19T08:49:19;8.35;;;1.95;;
78799;SDS011;68148;55.328;86.106;2023-09-19T08:52:04;3.58;;;1.85;;
78799;SDS011;68148;55.328;86.106;2023-09-19T08:54:37;10.23;;;1.80;;
78799;SDS011;68148;55.328;86.106;2023-09-19T08:57:06;2.97;;;1.40;;
78799;SDS011;68148;55.328;86.106;2023-09-19T08:59:33;4.53;;;1.95;;
78799;SDS011;68148;55.328;86.106;2023-09-19T09:02:00;3.08;;;1.60;;
78799;SDS011;68148;55.328;86.106;2023-09-19T09:04:26;3.88;;;1.77;;
78799;SDS011;68148;55.328;86.106;2023-09-19T09:06:53;2.80;;;1.50;;
78799;SDS011;68148;55.328;86.106;2023-09-19T09:09:20;3.15;;;1.55;;
78799;SDS011;68148;55.328;86.106;2023-09-19T09:11:48;5.13;;;2.20;;
78799;SDS011;68148;55.328;86.106;2023-09-19T09:14:14;7.90;;;2.17;;
78799;SDS011;68148;55.328;86.106;2023-09-19T09:16:40;2.65;;;1.23;;
78799;SDS011;68148;55.328;86.106;2023-09-19T09:19:06;7.15;;;1.70;;
78799;SDS011;68148;55.328;86.106;2023-09-19T09:21:33;11.75;;;2.60;;
78799;SDS011;68148;55.328;86.106;2023-09-19T09:26:40;6.53;;;1.48;;
78799;SDS011;68148;55.328;86.106;2023-09-19T09:29:07;3.80;;;1.05;;
78799;SDS011;68148;55.328;86.106;2023-09-19T09:31:32;4.00;;;1.48;;
78799;SDS011;68148;55.328;86.106;2023-09-19T09:33:58;4.47;;;1.80;;
78799;SDS011;68148;55.328;86.106;2023-09-19T09:36:35;4.75;;;1.45;;
78799;SDS011;68148;55.328;86.106;2023-09-19T09:39:02;2.85;;;1.33;;
78799;SDS011;68148;55.328;86.106;2023-09-19T09:41:36;4.72;;;1.30;;
78799;SDS011;68148;55.328;86.106;2023-09-19T09:44:12;4.13;;;1.50;;
78799;SDS011;68148;55.328;86.106;2023-09-19T09:46:47;4.90;;;1.42;;
78799;SDS011;68148;55.328;86.106;2023-09-19T09:49:13;4.05;;;1.90;;
78799;SDS011;68148;55.328;86.106;2023-09-19T09:51:40;6.53;;;1.80;;
78799;SDS011;68148;55.328;86.106;2023-09-19T09:54:14;4.07;;;1.75;;
78799;SDS011;68148;55.328;86.106;2023-09-19T09:56:51;3.20;;;1.40;;
78799;SDS011;68148;55.328;86.106;2023-09-19T09:59:21;4.32;;;1.48;;
78799;SDS011;68148;55.328;86.106;2023-09-19T10:01:47;5.50;;;1.73;;
78799;SDS011;68148;55.328;86.106;2023-09-19T10:04:15;3.03;;;1.50;;
78799;SDS011;68148;55.328;86.106;2023-09-19T10:06:52;6.28;;;1.58;;
78799;SDS011;68148;55.328;86.106;2023-09-19T10:09:18;4.45;;;2.38;;
78799;SDS011;68148;55.328;86.106;2023-09-19T10:11:44;3.55;;;1.50;;
78799;SDS011;68148;55.328;86.106;2023-09-19T10:14:13;4.30;;;1.30;;
78799;SDS011;68148;55.328;86.106;2023-09-19T10:16:47;4.38;;;1.63;;
78799;SDS011;68148;55.328;86.106;2023-09-19T10:19:29;3.80;;;1.33;;
78799;SDS011;68148;55.328;86.106;2023-09-19T10:22:01;3.75;;;1.20;;
78799;SDS011;68148;55.328;86.106;2023-09-19T10:24:28;4.03;;;1.20;;
78799;SDS011;68148;55.328;86.106;2023-09-19T10:26:54;3.35;;;1.58;;
78799;SDS011;68148;55.328;86.106;2023-09-19T10:29:21;9.93;;;2.42;;
78799;SDS011;68148;55.328;86.106;2023-09-19T10:31:48;10.68;;;2.20;;
78799;SDS011;68148;55.328;86.106;2023-09-19T10:34:17;4.50;;;1.80;;
78799;SDS011;68148;55.328;86.106;2023-09-19T10:36:45;5.55;;;1.98;;
78799;SDS011;68148;55.328;86.106;2023-09-19T10:39:15;6.55;;;2.20;;
78799;SDS011;68148;55.328;86.106;2023-09-19T10:41:42;5.20;;;1.63;;
78799;SDS011;68148;55.328;86.106;2023-09-19T10:44:08;6.80;;;2.58;;
78799;SDS011;68148;55.328;86.106;2023-09-19T10:46:33;24.65;;;9.98;;
78799;SDS011;68148;55.328;86.106;2023-09-19T10:49:00;7.50;;;2.80;;
78799;SDS011;68148;55.328;86.106;2023-09-19T10:51:27;10.95;;;3.88;;
78799;SDS011;68148;55.328;86.106;2023-09-19T10:53:58;5.88;;;2.63;;
78799;SDS011;68148;55.328;86.106;2023-09-19T10:56:32;7.80;;;2.45;;
78799;SDS011;68148;55.328;86.106;2023-09-19T10:59:05;7.07;;;2.10;;
78799;SDS011;68148;55.328;86.106;2023-09-19T11:01:50;12.13;;;5.57;;
78799;SDS011;68148;55.328;86.106;2023-09-19T11:04:24;8.98;;;2.50;;
78799;SDS011;68148;55.328;86.106;2023-09-19T11:12:12;13.98;;;7.10;;
78799;SDS011;68148;55.328;86.106;2023-09-19T11:14:58;11.20;;;3.58;;
78799;SDS011;68148;55.328;86.106;2023-09-19T11:22:57;35.08;;;11.35;;
78799;SDS011;68148;55.328;86.106;2023-09-19T11:30:41;27.33;;;10.40;;
78799;SDS011;68148;55.328;86.106;2023-09-19T11:36:00;83.10;;;33.15;;
78799;SDS011;68148;55.328;86.106;2023-09-19T11:43:45;62.65;;;24.27;;
78799;SDS011;68148;55.328;86.106;2023-09-19T11:46:12;46.28;;;15.55;;
78799;SDS011;68148;55.328;86.106;2023-09-19T11:48:38;82.13;;;30.20;;
78799;SDS011;68148;55.328;86.106;2023-09-19T11:51:09;29.75;;;9.45;;
78799;SDS011;68148;55.328;86.106;2023-09-19T11:53:46;50.78;;;16.80;;
78799;SDS011;68148;55.328;86.106;2023-09-19T11:56:12;24.33;;;6.07;;
78799;SDS011;68148;55.328;86.106;2023-09-19T11:58:38;27.85;;;8.25;;
78799;SDS011;68148;55.328;86.106;2023-09-19T12:01:06;24.10;;;5.78;;
78799;SDS011;68148;55.328;86.106;2023-09-19T12:03:32;29.00;;;11.25;;
78799;SDS011;68148;55.328;86.106;2023-09-19T12:06:01;55.47;;;18.58;;
78799;SDS011;68148;55.328;86.106;2023-09-19T12:08:35;53.60;;;16.67;;
78799;SDS011;68148;55.328;86.106;2023-09-19T12:11:01;55.50;;;18.42;;
78799;SDS011;68148;55.328;86.106;2023-09-19T12:13:27;48.92;;;15.98;;
78799;SDS011;68148;55.328;86.106;2023-09-19T12:15:53;48.95;;;18.33;;
78799;SDS011;68148;55.328;86.106;2023-09-19T12:18:26;28.30;;;8.50;;
78799;SDS011;68148;55.328;86.106;2023-09-19T12:20:55;40.58;;;8.75;;
78799;SDS011;68148;55.328;86.106;2023-09-19T12:25:48;22.13;;;8.18;;
78799;SDS011;68148;55.328;86.106;2023-09-19T12:28:14;27.75;;;8.68;;
78799;SDS011;68148;55.328;86.106;2023-09-19T12:30:40;33.05;;;9.00;;
78799;SDS011;68148;55.328;86.106;2023-09-19T12:33:06;36.72;;;13.02;;
78799;SDS011;68148;55.328;86.106;2023-09-19T12:35:41;51.60;;;14.88;;
78799;SDS011;68148;55.328;86.106;2023-09-19T12:38:09;54.38;;;17.58;;
78799;SDS011;68148;55.328;86.106;2023-09-19T12:40:34;55.00;;;20.58;;
78799;SDS011;68148;55.328;86.106;2023-09-19T12:43:02;54.53;;;18.67;;
78799;SDS011;68148;55.328;86.106;2023-09-19T12:45:38;68.05;;;20.73;;
78799;SDS011;68148;55.328;86.106;2023-09-19T12:48:23;67.97;;;22.38;;
78799;SDS011;68148;55.328;86.106;2023-09-19T12:53:56;58.83;;;20.63;;
78799;SDS011;68148;55.328;86.106;2023-09-19T12:56:23;59.88;;;20.95;;
78799;SDS011;68148;55.328;86.106;2023-09-19T12:58:52;69.80;;;21.50;;
78799;SDS011;68148;55.328;86.106;2023-09-19T13:01:19;88.70;;;20.30;;
78799;SDS011;68148;55.328;86.106;2023-09-19T13:03:46;98.72;;;24.17;;
78799;SDS011;68148;55.328;86.106;2023-09-19T13:06:37;108.28;;;31.77;;
78799;SDS011;68148;55.328;86.106;2023-09-19T13:09:10;111.57;;;36.83;;
78799;SDS011;68148;55.328;86.106;2023-09-19T13:11:38;101.88;;;30.00;;
78799;SDS011;68148;55.328;86.106;2023-09-19T13:14:20;127.05;;;33.42;;
78799;SDS011;68148;55.328;86.106;2023-09-19T13:16:54;132.98;;;38.75;;
78799;SDS011;68148;55.328;86.106;2023-09-19T13:19:41;129.57;;;42.13;;
78799;SDS011;68148;55.328;86.106;2023-09-19T13:25:21;133.00;;;48.05;;
78799;SDS011;68148;55.328;86.106;2023-09-19T13:30:15;136.10;;;43.78;;
78799;SDS011;68148;55.328;86.106;2023-09-19T13:32:41;117.13;;;41.88;;
78799;SDS011;68148;55.328;86.106;2023-09-19T13:35:07;117.30;;;43.67;;
78799;SDS011;68148;55.328;86.106;2023-09-19T13:37:33;134.20;;;42.20;;
78799;SDS011;68148;55.328;86.106;2023-09-19T13:39:59;124.22;;;42.22;;
78799;SDS011;68148;55.328;86.106;2023-09-19T13:42:26;142.80;;;42.97;;
78799;SDS011;68148;55.328;86.106;2023-09-19T13:44:51;130.68;;;41.75;;
78799;SDS011;68148;55.328;86.106;2023-09-19T13:47:17;122.00;;;43.50;;
78799;SDS011;68148;55.328;86.106;2023-09-19T13:49:43;125.88;;;40.30;;
78799;SDS011;68148;55.328;86.106;2023-09-19T13:52:09;124.88;;;40.53;;
78799;SDS011;68148;55.328;86.106;2023-09-19T13:54:35;123.60;;;39.50;;
78799;SDS011;68148;55.328;86.106;2023-09-19T13:57:01;134.30;;;40.95;;
78799;SDS011;68148;55.328;86.106;2023-09-19T13:59:27;149.70;;;45.38;;
78799;SDS011;68148;55.328;86.106;2023-09-19T14:01:52;95.50;;;33.50;;
78799;SDS011;68148;55.328;86.106;2023-09-19T14:04:19;120.18;;;33.65;;
78799;SDS011;68148;55.328;86.106;2023-09-19T14:06:45;113.25;;;34.28;;
78799;SDS011;68148;55.328;86.106;2023-09-19T14:09:10;99.47;;;32.33;;
78799;SDS011;68148;55.328;86.106;2023-09-19T14:11:36;121.88;;;38.40;;
78799;SDS011;68148;55.328;86.106;2023-09-19T14:14:02;90.55;;;32.00;;
78799;SDS011;68148;55.328;86.106;2023-09-19T14:16:28;110.53;;;35.45;;
78799;SDS011;68148;55.328;86.106;2023-09-19T14:18:54;103.18;;;31.40;;
78799;SDS011;68148;55.328;86.106;2023-09-19T14:21:19;121.90;;;34.88;;
78799;SDS011;68148;55.328;86.106;2023-09-19T14:23:46;101.88;;;31.90;;
78799;SDS011;68148;55.328;86.106;2023-09-19T14:26:12;108.70;;;33.92;;
78799;SDS011;68148;55.328;86.106;2023-09-19T14:28:37;109.75;;;36.53;;
78799;SDS011;68148;55.328;86.106;2023-09-19T14:31:09;145.80;;;38.25;;
78799;SDS011;68148;55.328;86.106;2023-09-19T14:33:36;117.30;;;36.92;;
78799;SDS011;68148;55.328;86.106;2023-09-19T14:36:05;124.47;;;35.70;;
78799;SDS011;68148;55.328;86.106;2023-09-19T14:38:33;113.28;;;35.78;;
78799;SDS011;68148;55.328;86.106;2023-09-19T14:41:03;101.13;;;34.10;;
78799;SDS011;68148;55.328;86.106;2023-09-19T14:43:30;119.40;;;37.15;;
78799;SDS011;68148;55.328;86.106;2023-09-19T14:45:57;88.95;;;29.60;;
78799;SDS011;68148;55.328;86.106;2023-09-19T14:48:23;82.15;;;28.50;;
78799;SDS011;68148;55.328;86.106;2023-09-19T14:50:49;92.82;;;29.20;;
78799;SDS011;68148;55.328;86.106;2023-09-19T14:53:14;96.55;;;30.50;;
78799;SDS011;68148;55.328;86.106;2023-09-19T14:55:40;106.45;;;32.60;;
78799;SDS011;68148;55.328;86.106;2023-09-19T14:58:06;103.55;;;31.98;;
78799;SDS011;68148;55.328;86.106;2023-09-19T15:00:32;120.85;;;34.13;;
78799;SDS011;68148;55.328;86.106;2023-09-19T15:02:58;146.70;;;41.92;;
78799;SDS011;68148;55.328;86.106;2023-09-19T15:05:24;102.15;;;33.33;;
78799;SDS011;68148;55.328;86.106;2023-09-19T15:07:50;111.00;;;38.97;;
78799;SDS011;68148;55.328;86.106;2023-09-19T15:10:15;116.82;;;35.22;;
78799;SDS011;68148;55.328;86.106;2023-09-19T15:12:41;116.15;;;36.70;;
78799;SDS011;68148;55.328;86.106;2023-09-19T15:15:07;118.10;;;36.53;;
78799;SDS011;68148;55.328;86.106;2023-09-19T15:17:35;130.32;;;37.65;;
78799;SDS011;68148;55.328;86.106;2023-09-19T15:20:01;134.60;;;39.20;;